Time;durP1;ratioP1;P1;durP2;ratioP2;P2;SDS_P1;SDS_P2;PMS_P1;PMS_P2;Temp;Humidity;BMP_temperature;BMP_pressure;BME280_temperature;BME280_humidity;BME280_pressure;Samples;Min_cycle;Max_cycle;Signal;HPM_P1;HPM_P2
2023/10/20 00:01:25;;;;;;;8.10;7.30;;;;;;;13.97;100.00;154948.25;5026564;28;20510;-87
2023/10/20 00:03:52;;;;;;;7.10;6.33;;;;;;;13.96;100.00;154945.66;5027860;28;20513;-86
2023/10/20 00:06:18;;;;;;;7.40;6.70;;;;;;;13.96;100.00;154945.66;5020046;28;20528;-86
2023/10/20 00:08:45;;;;;;;7.00;6.30;;;;;;;13.96;100.00;154946.94;5028538;28;20451;-86
2023/10/20 00:11:12;;;;;;;7.67;6.73;;;;;;;13.94;100.00;154940.47;5024068;28;21023;-86
2023/10/20 00:13:39;;;;;;;8.27;7.47;;;;;;;13.92;100.00;154935.28;5009566;28;20986;-86
2023/10/20 00:16:06;;;;;;;7.63;6.30;;;;;;;13.93;100.00;154937.84;5026682;28;21193;-86
2023/10/20 00:18:33;;;;;;;10.77;7.80;;;;;;;13.92;100.00;154936.59;5023927;28;20503;-86
2023/10/20 00:21:00;;;;;;;6.80;6.10;;;;;;;13.93;100.00;154937.84;5043545;28;20470;-86
2023/10/20 00:23:27;;;;;;;6.97;6.23;;;;;;;13.95;100.00;154943.09;5048361;28;20489;-87
2023/10/20 00:25:53;;;;;;;7.37;6.53;;;;;;;13.95;100.00;154943.09;5027803;28;20984;-86
2023/10/20 00:28:20;;;;;;;6.53;5.83;;;;;;;13.99;100.00;154954.75;5010452;28;20949;-87
2023/10/20 00:30:46;;;;;;;6.00;5.40;;;;;;;13.99;100.00;154954.75;5052220;28;20442;-87
2023/10/20 00:33:13;;;;;;;7.00;5.60;;;;;;;13.99;100.00;154953.44;5029438;28;20486;-87
2023/10/20 00:35:41;;;;;;;6.57;5.97;;;;;;;13.96;100.00;154946.94;5027829;28;20585;-86
2023/10/20 00:38:07;;;;;;;6.07;5.07;;;;;;;13.96;100.00;154945.66;5033337;28;20458;-87
2023/10/20 00:40:34;;;;;;;6.57;5.13;;;;;;;13.97;100.00;154948.25;5033117;28;20470;-86
2023/10/20 00:43:01;;;;;;;6.27;5.67;;;;;;;13.97;100.00;154948.25;5047774;28;20884;-86
2023/10/20 00:45:27;;;;;;;4.83;4.37;;;;;;;13.96;100.00;154945.66;5028039;28;20841;-86
2023/10/20 00:47:54;;;;;;;5.03;4.53;;;;;;;13.95;100.00;154944.34;5023317;28;20514;-86
2023/10/20 00:50:20;;;;;;;6.67;5.97;;;;;;;13.93;100.00;154939.16;5030807;28;20444;-86
2023/10/20 00:53:07;;;;;;;5.70;5.20;;;;;;;13.93;100.00;154937.84;5029964;28;20447;-86
2023/10/20 00:55:34;;;;;;;6.77;5.60;;;;;;;13.93;100.00;154937.84;5024362;28;20504;-86
2023/10/20 00:58:01;;;;;;;6.87;5.57;;;;;;;13.93;100.00;154937.84;5053423;28;20478;-86
2023/10/20 01:00:28;;;;;;;6.60;5.90;;;;;;;13.92;100.00;154935.28;5051555;28;20813;-86
2023/10/20 01:02:55;;;;;;;7.17;6.40;;;;;;;13.94;100.00;154941.78;5044817;28;20443;-86
2023/10/20 01:05:23;;;;;;;7.17;6.47;;;;;;;13.92;100.00;154935.28;5023675;28;20470;-86
2023/10/20 01:07:50;;;;;;;7.90;5.53;;;;;;;13.89;100.00;154928.81;5015589;28;20904;-86
2023/10/20 01:10:18;;;;;;;6.47;5.73;;;;;;;13.89;100.00;154927.50;5042946;28;20789;-85
2023/10/20 01:12:45;;;;;;;7.87;4.90;;;;;;;13.95;100.00;154943.09;5023910;28;20460;-85
2023/10/20 01:15:15;;;;;;;5.50;5.00;;;;;;;13.99;100.00;154953.44;5036634;28;20480;-86
2023/10/20 01:17:41;;;;;;;7.10;4.67;;;;;;;14.06;100.00;154970.34;5030773;28;20448;-86
2023/10/20 01:20:09;;;;;;;5.77;4.97;;;;;;;14.09;100.00;154979.41;5013282;28;20454;-86
2023/10/20 01:22:36;;;;;;;5.70;4.73;;;;;;;14.07;100.00;154974.22;5028922;28;20490;-86
2023/10/20 01:25:05;;;;;;;5.50;4.90;;;;;;;14.05;100.00;154969.03;5012502;28;20867;-86
2023/10/20 01:27:32;;;;;;;5.67;4.93;;;;;;;14.04;100.00;154966.41;5030770;28;20455;-86
2023/10/20 01:29:58;;;;;;;5.90;4.80;;;;;;;14.01;100.00;154959.94;5036823;28;20458;-86
2023/10/20 01:32:25;;;;;;;5.80;4.43;;;;;;;13.98;100.00;154950.81;5012085;28;20456;-86
2023/10/20 01:34:52;;;;;;;4.63;3.70;;;;;;;13.97;100.00;154949.56;4995418;28;21002;-86
2023/10/20 01:37:18;;;;;;;4.57;4.10;;;;;;;13.96;100.00;154946.94;5010080;28;20472;-86
2023/10/20 01:39:45;;;;;;;6.57;4.03;;;;;;;13.97;100.00;154948.25;5008676;28;20842;-86
2023/10/20 01:42:13;;;;;;;5.77;4.67;;;;;;;13.98;100.00;154950.81;5023396;28;20478;-86
2023/10/20 01:44:40;;;;;;;4.57;3.97;;;;;;;14.03;100.00;154963.84;5032890;28;20915;-86
2023/10/20 01:47:06;;;;;;;4.30;3.90;;;;;;;14.01;100.00;154958.63;5024503;28;20709;-86
2023/10/20 01:49:33;;;;;;;5.17;4.13;;;;;;;14.00;100.00;154956.06;5028261;28;21018;-87
2023/10/20 01:51:59;;;;;;;3.67;3.37;;;;;;;13.97;100.00;154949.56;5029855;28;20447;-87
2023/10/20 01:54:26;;;;;;;4.00;3.60;;;;;;;14.01;100.00;154958.63;5029278;28;20505;-86
2023/10/20 01:56:52;;;;;;;5.30;4.27;;;;;;;13.97;100.00;154949.56;5027619;28;20867;-86
2023/10/20 01:59:20;;;;;;;4.87;4.20;;;;;;;13.95;100.00;154944.34;5028764;28;20954;-86
2023/10/20 02:01:48;;;;;;;4.23;3.60;;;;;;;13.93;100.00;154937.84;5011664;28;20475;-86
2023/10/20 02:04:14;;;;;;;5.70;3.50;;;;;;;13.94;100.00;154941.78;5007616;28;20463;-86
2023/10/20 02:06:43;;;;;;;3.53;3.23;;;;;;;13.98;100.00;154950.81;5024845;28;20468;-86
2023/10/20 02:09:10;;;;;;;3.33;2.77;;;;;;;14.01;100.00;154958.63;5011309;28;20480;-87
2023/10/20 02:11:37;;;;;;;3.40;3.10;;;;;;;14.02;100.00;154961.25;5024137;28;20467;-86
2023/10/20 02:14:04;;;;;;;4.90;3.03;;;;;;;14.01;100.00;154958.63;5028183;28;20809;-87
2023/10/20 02:16:32;;;;;;;3.43;2.77;;;;;;;13.97;100.00;154949.56;5012136;28;20436;-87
2023/10/20 02:18:59;;;;;;;3.67;2.90;;;;;;;13.95;100.00;154943.09;5020441;28;20452;-87
2023/10/20 02:21:25;;;;;;;3.23;2.93;;;;;;;13.95;100.00;154944.34;5030504;28;20480;-88
2023/10/20 02:23:52;;;;;;;3.50;2.70;;;;;;;13.99;100.00;154953.44;5031105;28;20452;-89
2023/10/20 02:26:19;;;;;;;4.60;3.63;;;;;;;13.96;100.00;154946.94;5028656;28;20444;-87
2023/10/20 02:28:47;;;;;;;3.10;2.70;;;;;;;13.94;100.00;154940.47;5030537;28;20464;-88
2023/10/20 02:31:14;;;;;;;3.70;3.30;;;;;;;13.93;100.00;154937.84;5030929;28;21010;-87
2023/10/20 02:33:42;;;;;;;4.03;3.63;;;;;;;13.98;100.00;154952.13;5027748;28;20474;-87
2023/10/20 02:36:09;;;;;;;4.27;3.40;;;;;;;14.00;100.00;154957.31;5008146;28;20518;-88
2023/10/20 02:38:35;;;;;;;4.67;3.40;;;;;;;14.06;100.00;154971.59;5032600;28;20465;-87
2023/10/20 02:41:03;;;;;;;5.00;3.60;;;;;;;14.07;100.00;154974.22;5032068;28;20476;-87
2023/10/20 02:43:31;;;;;;;3.73;3.20;;;;;;;14.11;100.00;154983.31;5007782;28;20449;-88
2023/10/20 02:45:58;;;;;;;3.80;3.07;;;;;;;14.15;100.00;154995.00;5007497;28;20789;-88
2023/10/20 02:48:25;;;;;;;3.50;2.90;;;;;;;14.19;100.00;155004.09;5024830;28;20461;-88
2023/10/20 02:50:52;;;;;;;4.20;3.30;;;;;;;14.16;100.00;154997.59;5008823;28;20445;-87
2023/10/20 02:53:19;;;;;;;4.33;3.63;;;;;;;14.19;100.00;155004.09;5027379;28;20455;-87
2023/10/20 02:55:46;;;;;;;4.50;3.20;;;;;;;14.14;100.00;154992.38;5010655;28;20885;-90
2023/10/20 02:58:13;;;;;;;4.33;3.20;;;;;;;14.14;100.00;154992.38;5014823;28;20443;-90
2023/10/20 03:00:42;;;;;;;7.37;4.20;;;;;;;14.09;100.00;154979.41;5027546;28;20448;-91
2023/10/20 03:03:10;;;;;;;5.03;4.53;;;;;;;14.03;100.00;154963.84;5027577;28;20993;-90
2023/10/20 03:05:37;;;;;;;4.33;3.37;;;;;;;14.00;100.00;154956.06;5017092;28;20460;-90
2023/10/20 03:08:06;;;;;;;4.73;4.00;;;;;;;14.00;100.00;154957.31;5027794;28;21020;-90
2023/10/20 03:10:35;;;;;;;8.53;4.37;;;;;;;13.96;100.00;154945.66;5019924;28;20461;-90
2023/10/20 03:13:01;;;;;;;5.17;4.67;;;;;;;13.93;100.00;154939.16;5010401;28;20539;-90
2023/10/20 03:15:29;;;;;;;5.90;4.50;;;;;;;13.91;100.00;154932.66;5041597;28;20486;-88
2023/10/20 03:17:55;;;;;;;6.90;4.90;;;;;;;13.86;100.00;154921.00;5028741;28;20447;-90
2023/10/20 03:20:28;;;;;;;6.80;5.17;;;;;;;13.88;100.00;154926.19;5012012;28;20465;-90
2023/10/20 03:22:55;;;;;;;5.83;5.23;;;;;;;13.86;100.00;154919.69;5027387;28;20486;-89
2023/10/20 03:25:23;;;;;;;7.40;5.47;;;;;;;13.84;100.00;154914.50;5029350;28;20459;-90
2023/10/20 03:27:50;;;;;;;8.80;5.03;;;;;;;13.80;100.00;154905.41;5024925;28;20450;-90
2023/10/20 03:30:16;;;;;;;6.77;5.40;;;;;;;13.83;100.00;154913.22;5008769;28;20448;-90
2023/10/20 03:32:43;;;;;;;15.20;6.70;;;;;;;13.84;100.00;154914.50;4993873;28;20449;-91
2023/10/20 03:35:11;;;;;;;7.30;5.70;;;;;;;13.80;100.00;154905.41;5011636;28;20440;-89
2023/10/20 03:37:38;;;;;;;6.80;5.13;;;;;;;13.75;100.00;154891.13;5028288;28;20466;-89
2023/10/20 03:40:13;;;;;;;7.20;6.07;;;;;;;13.75;100.00;154892.44;5027130;28;20448;-89
2023/10/20 03:42:42;;;;;;;6.67;5.63;;;;;;;13.71;100.00;154880.78;5026996;28;20490;-89
2023/10/20 03:45:10;;;;;;;7.43;6.67;;;;;;;13.66;100.00;154867.78;5027020;28;20985;-89
2023/10/20 03:47:38;;;;;;;8.13;6.10;;;;;;;13.61;100.00;154856.06;5025473;28;20456;-91
2023/10/20 03:50:13;;;;;;;9.30;7.20;;;;;;;13.58;100.00;154847.03;5028135;28;20542;-91
2023/10/20 03:52:41;;;;;;;6.53;5.83;;;;;;;13.56;100.00;154843.09;5028597;28;20435;-88
2023/10/20 03:55:08;;;;;;;7.10;6.40;;;;;;;13.57;100.00;154844.41;5025117;28;20443;-90
2023/10/20 03:57:35;;;;;;;7.30;6.20;;;;;;;13.55;100.00;154839.22;5012189;28;21029;-89
2023/10/20 04:00:15;;;;;;;7.67;6.77;;;;;;;13.51;100.00;154828.81;5018795;28;20443;-89
2023/10/20 04:02:41;;;;;;;10.83;6.30;;;;;;;13.50;100.00;154827.56;5029050;28;20475;-89
2023/10/20 04:05:08;;;;;;;8.50;7.30;;;;;;;13.51;100.00;154828.81;5024013;28;20990;-90
2023/10/20 04:07:35;;;;;;;8.47;6.40;;;;;;;13.51;100.00;154828.81;5014530;28;20455;-89
2023/10/20 04:10:01;;;;;;;9.50;6.50;;;;;;;13.50;100.00;154826.25;5025445;28;20490;-89
2023/10/20 04:12:28;;;;;;;8.50;6.83;;;;;;;13.54;100.00;154837.91;5012802;28;20436;-90
2023/10/20 04:14:55;;;;;;;7.63;6.93;;;;;;;13.54;100.00;154836.63;5039303;28;20493;-88
2023/10/20 04:17:22;;;;;;;7.40;6.70;;;;;;;13.53;100.00;154835.31;5038361;28;20489;-88
2023/10/20 04:19:52;;;;;;;8.67;6.53;;;;;;;13.49;100.00;154823.66;5030878;28;20551;-90
2023/10/20 04:22:19;;;;;;;7.60;6.80;;;;;;;13.47;100.00;154818.47;5022846;28;20515;-90
2023/10/20 04:24:45;;;;;;;7.10;6.07;;;;;;;13.48;100.00;154821.03;5039213;28;20455;-91
2023/10/20 04:27:21;;;;;;;8.70;6.80;;;;;;;13.48;100.00;154821.03;4998261;28;20441;-91
2023/10/20 04:41:50;;;;;;;7.53;6.63;;;;;;;13.43;100.00;154810.66;5026874;28;20501;-91
2023/10/20 04:43:38;;;;;;;7.93;6.90;;;;;;;13.41;100.00;154805.50;5020847;28;20475;-89
2023/10/20 04:49:27;;;;;;;9.63;7.63;;;;;;;13.38;100.00;154796.38;5028250;28;20459;-89
2023/10/20 04:52:05;;;;;;;7.50;6.57;;;;;;;13.37;100.00;154795.09;5031114;28;20463;-89
2023/10/20 04:54:44;;;;;;;8.50;7.67;;;;;;;13.38;100.00;154796.38;5031577;28;20435;-89
2023/10/20 05:02:54;;;;;;;8.80;7.90;;;;;;;13.34;100.00;154786.03;5025961;28;20865;-89
2023/10/20 05:05:28;;;;;;;8.43;7.30;;;;;;;13.33;100.00;154784.72;5014683;28;20440;-89
2023/10/20 05:07:57;;;;;;;7.53;6.73;;;;;;;13.32;100.00;154780.81;5023356;28;20455;-90
2023/10/20 05:10:24;;;;;;;7.23;6.57;;;;;;;13.31;100.00;154779.56;5024214;28;20450;-90
2023/10/20 05:12:51;;;;;;;8.47;6.70;;;;;;;13.32;100.00;154782.13;5021873;28;20546;-90
2023/10/20 05:15:18;;;;;;;9.23;8.10;;;;;;;13.29;100.00;154773.06;5029032;28;20482;-90
2023/10/20 05:17:46;;;;;;;8.87;6.97;;;;;;;13.32;100.00;154780.81;5028287;28;20459;-90
2023/10/20 05:20:13;;;;;;;8.67;7.77;;;;;;;13.33;100.00;154784.72;5018254;28;20819;-89
2023/10/20 05:22:41;;;;;;;7.70;6.90;;;;;;;13.39;100.00;154800.31;5027283;28;20502;-91
2023/10/20 05:25:09;;;;;;;9.77;6.80;;;;;;;13.40;100.00;154801.56;5020224;28;20444;-91
2023/10/20 05:27:36;;;;;;;7.50;6.80;;;;;;;13.43;100.00;154809.38;5025017;28;20463;-91
2023/10/20 05:30:03;;;;;;;7.97;7.10;;;;;;;13.39;100.00;154800.31;5024445;28;20451;-91
2023/10/20 05:32:31;;;;;;;8.50;7.50;;;;;;;13.36;100.00;154792.53;5000211;28;20828;-90
2023/10/20 05:34:59;;;;;;;8.10;6.67;;;;;;;13.31;100.00;154778.25;5025558;28;20546;-91
2023/10/20 05:37:25;;;;;;;7.70;6.43;;;;;;;13.25;100.00;154763.97;5026695;28;20486;-91
2023/10/20 05:39:54;;;;;;;9.93;7.00;;;;;;;13.23;100.00;154757.47;5028785;28;20876;-92
2023/10/20 05:42:20;;;;;;;5.97;5.20;;;;;;;13.27;100.00;154769.13;5030854;28;20854;-93
2023/10/20 05:44:59;;;;;;;8.53;7.13;;;;;;;13.28;100.00;154771.75;5031904;28;20513;-91
2023/10/20 05:47:25;;;;;;;8.07;6.83;;;;;;;13.24;100.00;154761.34;5029652;28;20872;-91
2023/10/20 05:49:52;;;;;;;7.10;6.30;;;;;;;13.20;100.00;154749.69;5023465;28;20562;-91
2023/10/20 05:52:19;;;;;;;6.40;5.60;;;;;;;13.20;100.00;154751.00;5019752;28;20468;-90
2023/10/20 05:54:46;;;;;;;7.67;6.70;;;;;;;13.21;100.00;154753.56;5027626;28;20453;-91
2023/10/20 05:57:14;;;;;;;8.10;7.30;;;;;;;13.17;100.00;154743.22;5027820;28;20463;-91
2023/10/20 05:59:41;;;;;;;8.30;6.70;;;;;;;13.15;100.00;154738.03;5022793;28;20459;-91
2023/10/20 06:02:08;;;;;;;7.90;6.90;;;;;;;13.19;100.00;154747.06;5028822;28;20479;-92
2023/10/20 06:04:35;;;;;;;6.73;6.03;;;;;;;13.22;100.00;154756.19;5026043;28;20921;-92
2023/10/20 06:07:02;;;;;;;6.63;5.93;;;;;;;13.23;100.00;154757.47;5030211;28;20530;-92
2023/10/20 06:09:29;;;;;;;8.43;6.83;;;;;;;13.23;100.00;154758.78;5022896;28;20448;-93
2023/10/20 06:11:55;;;;;;;7.60;6.80;;;;;;;13.21;100.00;154753.56;5030529;28;20472;-93
2023/10/20 06:14:23;;;;;;;6.67;6.00;;;;;;;13.16;100.00;154740.59;5030668;28;20487;-93
2023/10/20 06:16:50;;;;;;;7.00;6.30;;;;;;;13.15;100.00;154738.03;5031102;28;20443;-94
2023/10/20 06:19:16;;;;;;;8.63;6.97;;;;;;;13.13;100.00;154732.78;5031186;28;20448;-94
2023/10/20 06:21:43;;;;;;;7.50;6.30;;;;;;;13.12;100.00;154730.22;5037885;28;20432;-94
2023/10/20 06:24:10;;;;;;;7.47;6.70;;;;;;;13.11;100.00;154727.63;5018512;28;20847;-94
2023/10/20 06:26:36;;;;;;;8.47;6.60;;;;;;;13.10;100.00;154723.75;5011420;28;20452;-95
2023/10/20 06:29:03;;;;;;;7.60;6.37;;;;;;;13.07;100.00;154717.25;5026693;28;20509;-94
2023/10/20 06:31:41;;;;;;;6.53;5.93;;;;;;;13.06;100.00;154713.28;5030949;28;20990;-93
2023/10/20 06:34:19;;;;;;;7.77;6.17;;;;;;;13.11;100.00;154727.63;5032105;28;20459;-94
2023/10/20 06:36:48;;;;;;;7.53;6.53;;;;;;;13.16;100.00;154740.59;5022370;28;20453;-94
2023/10/20 06:39:15;;;;;;;9.03;7.17;;;;;;;13.20;100.00;154749.69;5030641;28;20526;-93
2023/10/20 06:41:41;;;;;;;8.73;6.87;;;;;;;13.22;100.00;154756.19;5032133;28;20439;-92
2023/10/20 06:44:14;;;;;;;7.60;6.53;;;;;;;13.19;100.00;154748.38;5014145;28;20491;-92
2023/10/20 06:46:42;;;;;;;8.10;7.10;;;;;;;13.19;100.00;154747.06;5030786;28;20451;-93
2023/10/20 06:49:09;;;;;;;8.60;6.77;;;;;;;13.17;100.00;154743.22;5032380;28;20451;-92
2023/10/20 06:51:35;;;;;;;7.43;6.70;;;;;;;13.17;100.00;154743.22;5030594;28;20451;-93
2023/10/20 06:54:02;;;;;;;6.80;5.80;;;;;;;13.23;100.00;154757.47;5012743;28;20498;-92
2023/10/20 06:56:28;;;;;;;7.60;6.90;;;;;;;13.23;100.00;154757.47;5029199;28;20451;-93
2023/10/20 06:58:55;;;;;;;7.90;6.43;;;;;;;13.20;100.00;154751.00;5020121;28;20448;-93
2023/10/20 07:01:21;;;;;;;7.10;6.40;;;;;;;13.19;100.00;154747.06;5010949;28;20436;-93
2023/10/20 07:03:49;;;;;;;8.73;7.63;;;;;;;13.19;100.00;154747.06;5019348;28;20478;-92
2023/10/20 07:06:16;;;;;;;9.13;6.83;;;;;;;13.21;100.00;154753.56;5030245;28;20542;-93
2023/10/20 07:08:42;;;;;;;9.07;7.80;;;;;;;13.22;100.00;154756.19;5024469;28;20534;-92
2023/10/20 07:11:09;;;;;;;8.23;7.43;;;;;;;13.21;100.00;154753.56;5025310;28;20453;-91
2023/10/20 07:13:35;;;;;;;8.33;6.80;;;;;;;13.24;100.00;154761.34;5005315;28;20481;-92
2023/10/20 07:16:02;;;;;;;9.43;7.37;;;;;;;13.28;100.00;154771.75;5028046;28;20482;-93
2023/10/20 07:18:29;;;;;;;9.80;7.20;;;;;;;13.30;100.00;154776.94;5027162;28;20460;-94
2023/10/20 07:20:57;;;;;;;9.53;7.07;;;;;;;13.34;100.00;154787.28;5031618;28;20460;-93
2023/10/20 07:23:23;;;;;;;8.50;7.40;;;;;;;13.38;100.00;154797.69;5027278;28;20551;-92
2023/10/20 07:25:49;;;;;;;8.00;7.20;;;;;;;13.37;100.00;154795.09;5027343;28;20458;-91
2023/10/20 07:28:16;;;;;;;14.53;7.80;;;;;;;13.42;100.00;154808.06;5023967;28;20822;-92
2023/10/20 07:30:45;;;;;;;9.40;8.17;;;;;;;13.45;100.00;154813.28;5026973;28;20527;-92
2023/10/20 07:33:12;;;;;;;11.23;8.77;;;;;;;13.43;100.00;154810.66;5038046;28;20460;-90
2023/10/20 07:35:39;;;;;;;9.73;7.97;;;;;;;13.48;100.00;154822.34;5032976;28;20486;-90
2023/10/20 07:38:07;;;;;;;8.83;7.93;;;;;;;13.52;100.00;154831.44;5034143;28;20454;-91
2023/10/20 07:40:37;;;;;;;10.43;8.60;;;;;;;13.49;100.00;154823.66;5033138;28;20448;-90
2023/10/20 07:43:06;;;;;;;9.10;8.07;;;;;;;13.52;100.00;154831.44;5035035;28;20471;-91
2023/10/20 07:45:32;;;;;;;7.97;7.17;;;;;;;13.54;100.00;154837.91;5024013;28;20461;-92
2023/10/20 07:47:59;;;;;;;10.77;9.33;;;;;;;13.55;100.00;154839.22;5022694;28;20460;-92
2023/10/20 07:50:26;;;;;;;12.03;9.30;;;;;;;13.62;100.00;154858.69;5021824;28;20460;-92
2023/10/20 07:52:53;;;;;;;13.10;9.90;;;;;;;13.66;100.00;154867.78;5019538;28;20468;-92
2023/10/20 07:55:21;;;;;;;10.10;8.70;;;;;;;13.66;100.00;154869.06;5019700;28;20447;-92
2023/10/20 07:57:47;;;;;;;11.50;10.00;;;;;;;13.71;100.00;154882.06;5023770;28;20463;-90
2023/10/20 08:00:15;;;;;;;9.97;8.80;;;;;;;13.72;100.00;154884.63;5023808;28;20834;-92
2023/10/20 08:02:42;;;;;;;12.30;10.50;;;;;;;13.74;100.00;154888.56;5022962;28;20881;-91
2023/10/20 08:05:10;;;;;;;10.73;9.63;;;;;;;13.75;100.00;154891.13;5019202;28;20455;-91
2023/10/20 08:07:42;;;;;;;13.70;11.33;;;;;;;13.82;100.00;154909.34;5010133;28;20546;-91
2023/10/20 08:10:09;;;;;;;11.37;10.20;;;;;;;13.78;100.00;154900.22;5022345;28;20447;-91
2023/10/20 08:12:37;;;;;;;11.47;10.20;;;;;;;13.85;100.00;154918.38;5023524;28;20933;-91
2023/10/20 08:15:05;;;;;;;12.13;10.93;;;;;;;13.92;100.00;154935.28;5023102;28;20834;-92
2023/10/20 08:17:32;;;;;;;12.73;9.40;;;;;;;13.92;100.00;154935.28;5020770;28;20455;-91
2023/10/20 08:19:59;;;;;;;11.07;9.87;;;;;;;13.97;100.00;154949.56;5020799;28;20532;-90
2023/10/20 08:22:36;;;;;;;12.73;10.53;;;;;;;13.99;100.00;154953.44;5020595;28;20498;-91
2023/10/20 08:25:03;;;;;;;12.47;11.20;;;;;;;13.96;100.00;154946.94;5020524;28;20826;-92
2023/10/20 08:27:30;;;;;;;12.03;10.60;;;;;;;14.02;100.00;154962.56;5000988;28;20462;-90
2023/10/20 08:29:58;;;;;;;12.53;11.23;;;;;;;14.05;100.00;154969.03;5020501;28;20459;-91
2023/10/20 08:32:25;;;;;;;12.97;11.23;;;;;;;14.08;100.00;154976.84;5016684;28;21006;-90
2023/10/20 08:34:52;;;;;;;13.00;11.63;;;;;;;14.10;100.00;154982.03;5018724;28;20531;-91
2023/10/20 08:37:19;;;;;;;14.57;13.07;;;;;;;14.14;100.00;154992.38;5021867;28;20467;-89
2023/10/20 08:39:46;;;;;;;12.70;11.40;;;;;;;14.16;100.00;154996.31;5017254;28;20443;-89
2023/10/20 08:42:16;;;;;;;13.67;12.27;;;;;;;14.15;100.00;154995.00;5020860;28;20455;-90
2023/10/20 08:44:43;;;;;;;13.50;12.10;;;;;;;14.18;100.00;155001.50;5017211;28;20472;-90
2023/10/20 08:47:12;;;;;;;12.43;11.13;;;;;;;14.19;100.00;155005.34;5020556;28;20486;-90
2023/10/20 08:49:39;;;;;;;13.20;11.60;;;;;;;14.27;100.00;155024.88;5018974;28;20464;-90
2023/10/20 08:52:08;;;;;;;12.40;10.90;;;;;;;14.32;100.00;155037.91;5003761;28;20467;-90
2023/10/20 08:54:34;;;;;;;13.20;11.73;;;;;;;14.33;100.00;155041.78;5019020;28;20440;-89
2023/10/20 08:57:01;;;;;;;13.30;11.90;;;;;;;14.36;100.00;155049.59;5019387;28;20464;-90
2023/10/20 08:59:28;;;;;;;14.80;12.13;;;;;;;14.39;100.00;155057.38;5034633;28;20460;-90
2023/10/20 09:01:56;;;;;;;12.53;11.23;;;;;;;14.37;100.00;155052.19;5018573;28;20535;-89
2023/10/20 09:04:25;;;;;;;13.20;11.80;;;;;;;14.39;100.00;155057.38;5021709;28;20475;-90
2023/10/20 09:06:52;;;;;;;13.53;12.07;;;;;;;14.40;100.00;155059.94;5018001;28;20498;-90
2023/10/20 09:09:20;;;;;;;12.73;11.43;;;;;;;14.42;100.00;155065.19;5018739;28;20805;-90
2023/10/20 09:11:47;;;;;;;11.93;10.70;;;;;;;14.45;100.00;155072.97;5015960;28;20872;-89
2023/10/20 09:14:14;;;;;;;11.97;10.10;;;;;;;14.45;100.00;155072.97;5021661;28;20480;-90
2023/10/20 09:16:41;;;;;;;11.80;10.60;;;;;;;14.47;100.00;155076.84;5018229;28;20452;-90
2023/10/20 09:19:10;;;;;;;11.90;9.93;;;;;;;14.48;100.00;155080.72;5016591;28;20452;-90
2023/10/20 09:21:40;;;;;;;12.40;10.07;;;;;;;14.48;100.00;155079.47;5017568;28;20506;-90
2023/10/20 09:24:08;;;;;;;13.80;11.20;;;;;;;14.48;100.00;155080.72;5036905;28;20594;-90
2023/10/20 09:26:36;;;;;;;11.77;10.00;;;;;;;14.52;100.00;155091.16;5017932;28;20465;-89
2023/10/20 09:29:05;;;;;;;11.63;10.07;;;;;;;14.51;100.00;155087.22;5020248;28;20451;-89
2023/10/20 09:31:32;;;;;;;12.10;10.57;;;;;;;14.53;100.00;155093.72;5020156;28;20484;-90
2023/10/20 09:33:58;;;;;;;12.00;10.80;;;;;;;14.56;100.00;155100.25;5015432;28;20453;-90
2023/10/20 09:36:26;;;;;;;15.77;10.90;;;;;;;14.58;100.00;155106.75;5002442;28;20474;-89
2023/10/20 09:38:55;;;;;;;11.50;10.30;;;;;;;14.62;100.00;155117.09;5019890;28;20721;-90
2023/10/20 09:41:23;;;;;;;13.20;10.70;;;;;;;14.68;100.00;155131.41;5017278;28;20457;-89
2023/10/20 09:43:52;;;;;;;11.43;9.70;;;;;;;14.74;100.00;155145.69;5032012;28;20469;-89
2023/10/20 09:46:41;;;;;;;11.03;9.97;;;;;;;14.81;100.00;155163.88;5017860;28;20494;-90
2023/10/20 09:49:14;;;;;;;11.60;10.37;;;;;;;14.91;100.00;155189.84;5015385;28;20898;-89
2023/10/20 09:51:43;;;;;;;9.53;8.63;;;;;;;14.98;100.00;155208.06;5016274;28;20477;-88
2023/10/20 09:54:12;;;;;;;11.40;10.30;;;;;;;15.01;100.00;155217.13;5017368;28;20445;-89
2023/10/20 09:56:39;;;;;;;10.30;9.30;;;;;;;15.05;100.00;155226.22;5032426;28;20444;-89
2023/10/20 09:59:06;;;;;;;11.80;10.50;;;;;;;15.10;100.00;155239.22;5014170;28;20456;-89
2023/10/20 10:01:32;;;;;;;10.73;8.93;;;;;;;15.15;100.00;155252.22;5017218;28;20855;-89
2023/10/20 10:04:03;;;;;;;9.67;8.73;;;;;;;15.16;100.00;155256.13;5023035;28;20495;-89
2023/10/20 10:06:35;;;;;;;9.17;8.27;;;;;;;15.20;100.00;155265.19;5018210;28;20877;-89
2023/10/20 10:09:03;;;;;;;9.33;8.33;;;;;;;15.20;100.00;155265.19;5032477;28;20539;-88
2023/10/20 10:11:34;;;;;;;8.43;7.53;;;;;;;15.19;100.00;155262.63;5016733;28;20463;-89
2023/10/20 10:14:02;;;;;;;9.50;8.50;;;;;;;15.20;100.00;155265.19;5015705;28;20550;-89
2023/10/20 10:16:29;;;;;;;8.90;8.00;;;;;;;15.19;100.00;155262.63;5015664;28;20813;-89
2023/10/20 10:19:06;;;;;;;8.53;7.40;;;;;;;15.17;100.00;155257.41;5017430;28;20543;-88
2023/10/20 10:21:37;;;;;;;7.97;7.17;;;;;;;15.19;100.00;155263.94;5016381;28;20479;-89
2023/10/20 10:24:17;;;;;;;7.73;6.93;;;;;;;15.21;100.00;155269.13;5029628;28;20861;-88
2023/10/20 10:26:47;;;;;;;9.40;6.93;;;;;;;15.25;100.00;155278.19;5015920;28;20450;-89
2023/10/20 10:29:13;;;;;;;7.50;6.57;;;;;;;15.25;100.00;155279.50;5018324;28;20920;-89
2023/10/20 10:31:40;;;;;;;7.50;6.80;;;;;;;15.29;100.00;155288.63;5019363;28;20456;-90
2023/10/20 10:34:07;;;;;;;7.40;6.70;;;;;;;15.32;100.00;155296.41;5018097;28;20506;-89
2023/10/20 10:36:45;;;;;;;7.70;6.33;;;;;;;15.33;100.00;155298.97;5017659;28;20456;-89
2023/10/20 10:39:27;;;;;;;6.90;6.30;;;;;;;15.37;100.00;155309.41;5034273;28;20901;-89
2023/10/20 10:42:01;;;;;;;6.40;5.30;;;;;;;15.38;100.00;155311.97;5026338;28;20457;-88
2023/10/20 10:44:33;;;;;;;6.20;5.60;;;;;;;15.41;100.00;155319.78;5032798;28;20869;-87
2023/10/20 10:46:59;;;;;;;7.10;6.13;;;;;;;15.42;100.00;155322.41;5018731;28;20834;-88
2023/10/20 10:49:26;;;;;;;5.40;4.90;;;;;;;15.45;100.00;155328.91;5032723;28;20471;-88
2023/10/20 10:51:53;;;;;;;5.87;4.80;;;;;;;15.46;100.00;155332.81;5014164;28;20452;-88
2023/10/20 10:54:19;;;;;;;5.67;4.00;;;;;;;15.48;100.00;155338.06;5018164;28;20440;-88
2023/10/20 10:56:46;;;;;;;4.53;4.13;;;;;;;15.49;100.00;155339.38;5019243;28;20484;-88
2023/10/20 10:59:15;;;;;;;4.90;4.20;;;;;;;15.51;100.00;155344.56;5015633;28;20451;-88
2023/10/20 11:01:42;;;;;;;4.23;3.50;;;;;;;15.51;100.00;155345.88;5017075;28;20495;-88
2023/10/20 11:04:10;;;;;;;8.03;4.73;;;;;;;15.51;100.00;155344.56;5000573;28;20492;-88
2023/10/20 11:06:40;;;;;;;3.73;3.27;;;;;;;15.52;100.00;155348.44;5018585;28;20452;-87
2023/10/20 11:09:10;;;;;;;3.57;2.80;;;;;;;15.53;100.00;155351.06;5032956;28;20457;-87
2023/10/20 11:11:42;;;;;;;2.07;1.73;;;;;;;15.57;100.00;155361.44;5020148;28;20452;-87
2023/10/20 11:14:10;;;;;;;3.03;2.07;;;;;;;15.60;100.00;155369.22;5033929;28;20484;-87
2023/10/20 11:16:38;;;;;;;2.73;2.37;;;;;;;15.62;100.00;155374.41;5014987;28;20448;-87
2023/10/20 11:19:04;;;;;;;2.50;2.30;;;;;;;15.64;100.00;155379.66;5018916;28;20457;-86
2023/10/20 11:21:45;;;;;;;2.93;2.60;;;;;;;15.69;100.00;155392.66;5020191;28;20468;-87
2023/10/20 11:24:12;;;;;;;2.80;2.23;;;;;;;15.68;100.00;155390.03;5031413;28;21031;-87
2023/10/20 11:26:39;;;;;;;3.10;2.20;;;;;;;15.67;100.00;155387.41;5020891;28;20448;-86
2023/10/20 11:29:08;;;;;;;2.43;1.90;;;;;;;15.68;100.00;155390.03;5020541;28;20455;-86
2023/10/20 11:31:38;;;;;;;2.87;1.70;;;;;;;15.67;100.00;155386.16;5033972;28;20468;-86
2023/10/20 11:34:05;;;;;;;3.17;2.10;;;;;;;15.68;100.00;155390.03;5013148;28;20444;-86
2023/10/20 11:36:34;;;;;;;2.30;1.80;;;;;;;15.71;100.00;155396.53;5018820;28;20483;-86
2023/10/20 11:39:01;;;;;;;2.90;1.90;;;;;;;15.70;100.00;155395.22;5014705;28;20557;-86